createdAt,value
2022-10-30T00:01:17.661Z,6.20
2022-10-30T00:03:44.668Z,6.93
2022-10-30T00:06:11.485Z,7.07
2022-10-30T00:08:39.567Z,7.38
2022-10-30T00:11:07.704Z,6.50
2022-10-30T00:13:34.902Z,6.47
2022-10-30T00:16:06.480Z,7.35
2022-10-30T00:18:35.277Z,7.32
2022-10-30T00:21:05.998Z,6.63
2022-10-30T00:23:33.063Z,6.68
2022-10-30T00:26:05.011Z,7.13
2022-10-30T00:28:31.823Z,7.65
2022-10-30T00:31:02.903Z,6.90
2022-10-30T00:33:29.859Z,7.55
2022-10-30T00:35:56.671Z,7.70
2022-10-30T00:38:23.399Z,7.32
2022-10-30T00:40:50.347Z,7.65
2022-10-30T00:43:36.292Z,7.35
2022-10-30T00:46:08.159Z,7.13
2022-10-30T00:48:35.615Z,6.82
2022-10-30T00:51:04.857Z,6.57
2022-10-30T00:53:31.976Z,7.32
2022-10-30T00:56:02.681Z,7.47
2022-10-30T00:58:38.305Z,7.90
2022-10-30T01:01:11.602Z,7.32
2022-10-30T01:03:39.672Z,7.63
2022-10-30T01:06:10.444Z,8.43
2022-10-30T01:08:38.743Z,7.40
2022-10-30T01:11:06.543Z,7.82
2022-10-30T01:13:36.053Z,7.85
2022-10-30T01:16:21.546Z,7.35
2022-10-30T01:18:59.027Z,7.78
2022-10-30T01:21:42.190Z,8.00
2022-10-30T01:24:31.392Z,7.85
2022-10-30T01:27:13.870Z,7.72
2022-10-30T01:29:51.151Z,7.97
2022-10-30T01:32:37.513Z,8.02
2022-10-30T01:35:11.653Z,7.47
2022-10-30T01:37:42.639Z,7.88
2022-10-30T01:40:11.554Z,7.95
2022-10-30T01:42:48.070Z,7.10
2022-10-30T01:45:20.386Z,7.68
2022-10-30T01:48:02.323Z,7.20
2022-10-30T01:50:38.753Z,7.60
2022-10-30T01:53:15.414Z,7.45
2022-10-30T01:55:51.803Z,7.95
2022-10-30T01:58:23.340Z,7.78
2022-10-30T02:00:55.526Z,7.55
2022-10-30T02:03:24.063Z,7.95
2022-10-30T02:05:52.694Z,7.55
2022-10-30T02:08:19.793Z,8.35
2022-10-30T02:10:48.509Z,8.25
2022-10-30T02:15:43.858Z,6.90
2022-10-30T02:18:11.440Z,7.65
2022-10-30T02:20:39.747Z,7.57
2022-10-30T02:23:06.966Z,7.32
2022-10-30T02:25:34.115Z,7.65
2022-10-30T02:28:01.057Z,8.90
2022-10-30T02:30:27.803Z,8.07
2022-10-30T02:32:54.690Z,7.65
2022-10-30T02:35:21.765Z,8.60
2022-10-30T02:37:50.290Z,8.38
2022-10-30T02:40:17.237Z,8.20
2022-10-30T02:42:44.104Z,8.00
2022-10-30T02:45:11.590Z,8.10
2022-10-30T02:47:38.906Z,8.15
2022-10-30T02:50:06.703Z,8.32
2022-10-30T02:52:33.287Z,7.97
2022-10-30T02:55:01.604Z,8.43
2022-10-30T02:57:28.294Z,8.00
2022-10-30T02:59:54.931Z,8.07
2022-10-30T03:02:21.789Z,8.18
2022-10-30T03:04:48.550Z,8.30
2022-10-30T03:07:15.426Z,8.45
2022-10-30T03:09:42.106Z,8.75
2022-10-30T03:12:10.120Z,8.25
2022-10-30T03:14:36.707Z,8.10
2022-10-30T03:17:03.398Z,8.10
2022-10-30T03:19:29.993Z,8.20
2022-10-30T03:21:56.834Z,7.63
2022-10-30T03:24:23.408Z,8.00
2022-10-30T03:26:50.729Z,8.60
2022-10-30T03:29:18.682Z,8.52
2022-10-30T03:31:45.310Z,8.57
2022-10-30T03:34:12.054Z,7.88
2022-10-30T03:36:38.676Z,7.97
2022-10-30T03:39:05.428Z,8.30
2022-10-30T03:41:32.086Z,8.05
2022-10-30T03:43:58.771Z,8.10
2022-10-30T03:46:26.755Z,7.80
2022-10-30T03:48:53.326Z,8.97
2022-10-30T03:51:19.950Z,8.43
2022-10-30T03:53:46.557Z,7.93
2022-10-30T03:56:13.584Z,8.27
2022-10-30T03:58:40.133Z,8.48
2022-10-30T04:01:07.841Z,8.40
2022-10-30T04:03:36.205Z,8.32
2022-10-30T04:06:03.164Z,8.10
2022-10-30T04:08:29.852Z,8.43
2022-10-30T04:10:56.913Z,8.13
2022-10-30T04:13:23.684Z,7.93
2022-10-30T04:15:57.172Z,7.80
2022-10-30T04:18:24.810Z,8.73
2022-10-30T04:20:53.009Z,8.90
2022-10-30T04:23:21.634Z,7.90
2022-10-30T04:25:49.153Z,7.80
2022-10-30T04:28:16.145Z,7.85
2022-10-30T04:30:42.974Z,7.82
2022-10-30T04:33:12.100Z,8.85
2022-10-30T04:35:39.832Z,8.27
2022-10-30T04:38:10.114Z,8.50
2022-10-30T04:40:38.206Z,8.25
2022-10-30T04:43:05.801Z,8.50
2022-10-30T04:45:32.854Z,7.90
2022-10-30T04:48:03.449Z,8.00
2022-10-30T04:50:30.743Z,8.45
2022-10-30T04:53:02.152Z,8.15
2022-10-30T04:55:31.109Z,7.78
2022-10-30T04:57:58.578Z,7.55
2022-10-30T05:00:26.791Z,8.77
2022-10-30T05:02:53.382Z,7.70
2022-10-30T05:05:20.642Z,8.20
2022-10-30T05:07:47.211Z,8.30
2022-10-30T05:10:18.415Z,8.13
2022-10-30T05:12:46.875Z,8.77
2022-10-30T05:15:14.259Z,8.18
2022-10-30T05:17:41.567Z,8.57
2022-10-30T05:20:09.422Z,8.13
2022-10-30T05:22:36.554Z,8.30
2022-10-30T05:25:03.603Z,8.90
2022-10-30T05:27:30.208Z,8.55
2022-10-30T05:29:58.173Z,8.02
2022-10-30T05:32:25.619Z,8.20
2022-10-30T05:34:52.260Z,9.30
2022-10-30T05:37:19.132Z,8.52
2022-10-30T05:39:45.738Z,7.85
2022-10-30T05:42:13.886Z,8.80
2022-10-30T05:44:59.806Z,8.38
2022-10-30T05:47:28.843Z,8.40
2022-10-30T05:49:55.602Z,7.70
2022-10-30T05:52:22.384Z,8.38
2022-10-30T05:54:49.075Z,8.13
2022-10-30T05:57:15.840Z,8.15
2022-10-30T05:59:42.456Z,8.23
2022-10-30T06:02:09.873Z,8.43
2022-10-30T06:04:38.012Z,8.25
2022-10-30T06:07:05.708Z,8.18
2022-10-30T06:09:32.330Z,8.60
2022-10-30T06:11:59.181Z,7.70
2022-10-30T06:14:25.865Z,8.13
2022-10-30T06:16:52.461Z,8.68
2022-10-30T06:19:19.370Z,9.20
2022-10-30T06:21:47.439Z,8.15
2022-10-30T06:24:14.414Z,8.68
2022-10-30T06:26:41.363Z,8.23
2022-10-30T06:29:08.138Z,8.23
2022-10-30T06:31:34.826Z,9.10
2022-10-30T06:34:01.476Z,9.35
2022-10-30T06:36:28.245Z,9.73
2022-10-30T06:38:56.326Z,9.30
2022-10-30T06:41:26.067Z,9.63
2022-10-30T06:43:56.735Z,8.95
2022-10-30T06:46:26.922Z,8.75
2022-10-30T06:48:57.438Z,9.73
2022-10-30T06:51:24.284Z,8.70
2022-10-30T06:53:50.962Z,8.80
2022-10-30T06:56:18.874Z,8.60
2022-10-30T06:58:45.924Z,8.53
2022-10-30T07:01:12.495Z,7.95
2022-10-30T07:03:39.212Z,7.72
2022-10-30T07:06:06.373Z,8.38
2022-10-30T07:08:33.354Z,8.82
2022-10-30T07:10:59.965Z,8.35
2022-10-30T07:13:28.048Z,8.38
2022-10-30T07:15:55.190Z,8.98
2022-10-30T07:18:22.125Z,8.80
2022-10-30T07:20:53.553Z,9.18
2022-10-30T07:23:20.456Z,9.25
2022-10-30T07:25:47.180Z,8.75
2022-10-30T07:28:14.072Z,9.73
2022-10-30T07:30:42.119Z,9.45
2022-10-30T07:33:10.180Z,9.60
2022-10-30T07:35:38.428Z,8.98
2022-10-30T07:38:07.529Z,9.25
2022-10-30T07:40:34.566Z,9.02
2022-10-30T07:43:03.693Z,8.23
2022-10-30T07:45:31.496Z,9.02
2022-10-30T07:47:59.805Z,9.23
2022-10-30T07:50:27.645Z,9.35
2022-10-30T07:52:54.841Z,8.77
2022-10-30T07:55:21.553Z,9.23
2022-10-30T07:57:48.586Z,9.52
2022-10-30T08:00:18.560Z,10.27
2022-10-30T08:02:49.359Z,9.32
2022-10-30T08:05:17.992Z,9.25
2022-10-30T08:07:47.010Z,8.57
2022-10-30T08:10:14.055Z,9.68
2022-10-30T08:12:44.015Z,9.07
2022-10-30T08:15:12.247Z,9.75
2022-10-30T08:17:47.653Z,9.75
2022-10-30T08:20:18.362Z,9.65
2022-10-30T08:22:46.947Z,9.57
2022-10-30T08:25:14.093Z,9.93
2022-10-30T08:27:50.538Z,9.60
2022-10-30T08:30:17.354Z,11.02
2022-10-30T08:32:44.089Z,9.95
2022-10-30T08:35:12.588Z,10.43
2022-10-30T08:37:42.852Z,9.50
2022-10-30T08:40:11.407Z,10.52
2022-10-30T08:42:38.755Z,10.15
2022-10-30T08:45:06.602Z,10.35
2022-10-30T08:47:33.989Z,9.90
2022-10-30T08:50:00.621Z,10.52
2022-10-30T08:52:27.483Z,9.95
2022-10-30T08:54:55.806Z,10.75
2022-10-30T08:57:22.559Z,11.40
2022-10-30T08:59:49.175Z,10.68
2022-10-30T09:02:15.966Z,10.88
2022-10-30T09:04:42.727Z,10.70
2022-10-30T09:07:12.053Z,10.93
2022-10-30T09:09:40.222Z,11.35
2022-10-30T09:12:08.313Z,11.63
2022-10-30T09:14:34.939Z,10.50
2022-10-30T09:17:01.658Z,10.98
2022-10-30T09:19:28.902Z,10.93
2022-10-30T09:21:55.871Z,10.30
2022-10-30T09:24:22.844Z,11.30
2022-10-30T09:26:49.608Z,11.10
2022-10-30T09:29:18.317Z,12.52
2022-10-30T09:34:11.504Z,10.55
2022-10-30T09:36:38.573Z,11.55
2022-10-30T09:39:05.426Z,11.73
2022-10-30T09:42:01.425Z,11.80
2022-10-30T09:44:41.092Z,12.30
2022-10-30T09:47:23.641Z,12.35
2022-10-30T09:50:03.487Z,11.75
2022-10-30T09:52:38.554Z,12.02
2022-10-30T09:55:29.695Z,11.80
2022-10-30T09:58:04.495Z,12.10
2022-10-30T10:00:38.572Z,12.07
2022-10-30T10:03:35.954Z,11.90
2022-10-30T10:06:03.969Z,11.82
2022-10-30T10:08:38.199Z,12.63
2022-10-30T10:11:10.703Z,12.15
2022-10-30T10:13:46.452Z,12.48
2022-10-30T10:16:20.885Z,12.85
2022-10-30T10:18:52.899Z,12.80
2022-10-30T10:21:24.856Z,12.70
2022-10-30T10:23:53.472Z,13.15
2022-10-30T10:26:29.387Z,12.88
2022-10-30T10:29:23.979Z,13.38
2022-10-30T10:32:07.014Z,12.15
2022-10-30T10:34:49.289Z,13.20
2022-10-30T10:37:30.675Z,12.88
2022-10-30T10:40:19.161Z,12.38
2022-10-30T10:45:29.744Z,11.07
2022-10-30T10:48:24.868Z,12.75
2022-10-30T10:50:58.726Z,12.48
2022-10-30T10:53:37.109Z,12.63
2022-10-30T10:56:05.080Z,12.98
2022-10-30T10:58:38.229Z,12.70
2022-10-30T11:01:13.550Z,12.68
2022-10-30T11:03:51.130Z,12.82
2022-10-30T11:06:22.845Z,12.20
2022-10-30T11:08:50.475Z,12.35
2022-10-30T11:11:17.511Z,12.32
2022-10-30T11:13:45.819Z,12.00
2022-10-30T11:16:27.917Z,12.60
2022-10-30T11:18:59.836Z,11.13
2022-10-30T11:21:28.061Z,11.90
2022-10-30T11:23:55.528Z,12.27
2022-10-30T11:26:31.771Z,11.50
2022-10-30T11:29:03.205Z,11.45
2022-10-30T11:31:38.190Z,11.38
2022-10-30T11:34:34.383Z,11.02
2022-10-30T11:37:01.500Z,10.57
2022-10-30T11:39:31.226Z,10.98
2022-10-30T11:42:01.945Z,10.88
2022-10-30T11:44:33.132Z,11.27
2022-10-30T11:47:00.877Z,11.02
2022-10-30T11:49:36.842Z,11.13
2022-10-30T11:52:05.262Z,11.30
2022-10-30T11:54:37.876Z,10.43
2022-10-30T11:57:11.578Z,10.75
2022-10-30T11:59:47.330Z,11.00
2022-10-30T12:02:22.646Z,10.73
2022-10-30T12:04:52.036Z,10.40
2022-10-30T12:07:29.396Z,10.15
2022-10-30T12:09:57.767Z,10.35
2022-10-30T12:12:28.571Z,10.63
2022-10-30T12:14:57.867Z,10.27
2022-10-30T12:17:25.001Z,9.93
2022-10-30T12:19:55.487Z,9.88
2022-10-30T12:22:29.219Z,9.40
2022-10-30T12:24:58.780Z,8.73
2022-10-30T12:27:27.283Z,9.18
2022-10-30T12:30:17.169Z,9.20
2022-10-30T12:32:49.583Z,8.82
2022-10-30T12:35:36.035Z,7.93
2022-10-30T12:38:05.859Z,7.95
2022-10-30T12:40:42.122Z,8.57
2022-10-30T12:43:17.470Z,8.15
2022-10-30T12:45:46.982Z,7.28
2022-10-30T12:48:22.506Z,7.57
2022-10-30T12:51:03.921Z,8.13
2022-10-30T12:53:38.721Z,8.10
2022-10-30T12:56:12.498Z,7.88
2022-10-30T12:58:45.043Z,8.60
2022-10-30T13:01:27.188Z,9.20
2022-10-30T13:03:57.633Z,8.05
2022-10-30T13:06:28.702Z,9.15
2022-10-30T13:09:09.172Z,8.77
2022-10-30T13:11:45.852Z,9.05
2022-10-30T13:14:17.619Z,8.38
2022-10-30T13:16:44.314Z,8.02
2022-10-30T13:19:13.775Z,8.00
2022-10-30T13:21:55.408Z,8.10
2022-10-30T13:24:32.187Z,8.90
2022-10-30T13:27:05.087Z,7.70
2022-10-30T13:29:40.994Z,7.80
2022-10-30T13:32:26.810Z,7.57
2022-10-30T13:35:02.664Z,7.47
2022-10-30T13:37:38.125Z,7.53
2022-10-30T13:40:14.767Z,7.45
2022-10-30T13:42:54.107Z,7.63
2022-10-30T13:45:33.701Z,8.05
2022-10-30T13:48:10.080Z,7.80
2022-10-30T13:50:46.468Z,8.10
2022-10-30T13:53:19.414Z,8.63
2022-10-30T13:55:47.221Z,7.93
2022-10-30T13:58:23.394Z,7.77
2022-10-30T14:01:00.694Z,8.07
2022-10-30T14:03:45.780Z,8.05
2022-10-30T14:06:25.058Z,8.15
2022-10-30T14:09:06.224Z,7.78
2022-10-30T14:11:33.241Z,7.95
2022-10-30T14:14:05.579Z,8.70
2022-10-30T14:16:44.682Z,8.45
2022-10-30T14:19:12.603Z,8.25
2022-10-30T14:21:41.847Z,8.57
2022-10-30T14:24:24.638Z,7.90
2022-10-30T14:26:55.008Z,7.70
2022-10-30T14:29:49.208Z,7.97
2022-10-30T14:32:36.846Z,8.32
2022-10-30T14:35:40.923Z,7.80
2022-10-30T14:38:25.014Z,8.40
2022-10-30T14:41:31.575Z,8.13
2022-10-30T14:44:17.390Z,8.25
2022-10-30T14:47:03.452Z,8.35
2022-10-30T14:49:55.890Z,8.32
2022-10-30T14:52:36.353Z,8.93
2022-10-30T14:55:25.004Z,8.27
2022-10-30T14:57:53.487Z,9.05
2022-10-30T15:00:38.880Z,9.50
2022-10-30T15:03:10.357Z,8.60
2022-10-30T15:05:44.090Z,9.38
2022-10-30T15:08:26.989Z,10.95
2022-10-30T15:11:12.916Z,11.00
2022-10-30T15:13:48.403Z,11.68
2022-10-30T15:16:19.185Z,11.13
2022-10-30T15:18:48.191Z,11.68
2022-10-30T15:21:23.202Z,10.43
2022-10-30T15:23:50.066Z,10.35
2022-10-30T15:26:20.922Z,9.15
2022-10-30T15:28:50.684Z,9.60
2022-10-30T15:31:26.370Z,10.05
2022-10-30T15:33:54.437Z,9.48
2022-10-30T15:36:23.121Z,9.48
2022-10-30T15:39:06.146Z,9.50
2022-10-30T15:41:36.274Z,9.82
2022-10-30T15:44:04.297Z,8.65
2022-10-30T15:46:33.110Z,8.90
2022-10-30T15:48:59.874Z,8.50
2022-10-30T15:51:27.033Z,9.35
2022-10-30T15:53:56.359Z,9.77
2022-10-30T15:56:27.497Z,9.95
2022-10-30T15:58:57.732Z,9.80
2022-10-30T16:01:25.866Z,10.35
2022-10-30T16:03:54.635Z,10.15
2022-10-30T16:08:52.536Z,9.38
2022-10-30T16:11:21.007Z,9.90
2022-10-30T16:13:48.199Z,9.95
2022-10-30T16:16:30.624Z,9.63
2022-10-30T16:19:02.146Z,10.20
2022-10-30T16:21:30.997Z,10.70
2022-10-30T16:24:01.191Z,11.07
2022-10-30T16:26:30.135Z,11.00
2022-10-30T16:29:01.022Z,11.27
2022-10-30T16:31:34.598Z,12.52
2022-10-30T16:34:04.743Z,13.07
2022-10-30T16:36:32.297Z,12.48
2022-10-30T16:38:59.634Z,12.30
2022-10-30T16:41:28.265Z,12.55
2022-10-30T16:46:48.166Z,10.25
2022-10-30T16:49:19.128Z,10.93
2022-10-30T16:51:47.007Z,11.02
2022-10-30T16:54:20.135Z,11.35
2022-10-30T16:56:51.334Z,10.52
2022-10-30T16:59:25.350Z,9.70
2022-10-30T17:01:55.364Z,11.00
2022-10-30T17:04:24.816Z,10.77
2022-10-30T17:07:05.879Z,10.65
2022-10-30T17:09:36.801Z,10.07
2022-10-30T17:12:15.743Z,10.75
2022-10-30T17:15:04.251Z,9.70
2022-10-30T17:17:33.249Z,9.10
2022-10-30T17:20:14.331Z,10.00
2022-10-30T17:22:41.218Z,9.13
2022-10-30T17:25:30.414Z,8.88
2022-10-30T17:27:57.566Z,9.15
2022-10-30T17:30:36.924Z,9.18
2022-10-30T17:33:22.629Z,8.82
2022-10-30T17:35:51.678Z,8.40
2022-10-30T17:38:18.692Z,8.23
2022-10-30T17:40:47.153Z,7.15
2022-10-30T17:43:15.303Z,7.78
2022-10-30T17:45:42.109Z,8.27
2022-10-30T17:48:13.759Z,8.80
2022-10-30T17:50:40.700Z,8.13
2022-10-30T17:53:15.258Z,7.50
2022-10-30T17:55:46.695Z,7.45
2022-10-30T17:58:13.446Z,7.45
2022-10-30T18:00:40.270Z,6.80
2022-10-30T18:03:06.962Z,7.18
2022-10-30T18:05:35.997Z,7.13
2022-10-30T18:08:03.124Z,7.43
2022-10-30T18:10:31.365Z,7.22
2022-10-30T18:12:59.155Z,7.15
2022-10-30T18:15:29.644Z,7.45
2022-10-30T18:17:56.561Z,7.10
2022-10-30T18:20:23.533Z,7.78
2022-10-30T18:22:50.417Z,7.57
2022-10-30T18:25:21.564Z,7.32
2022-10-30T18:27:49.773Z,7.28
2022-10-30T18:30:16.842Z,8.05
2022-10-30T18:32:44.167Z,7.32
2022-10-30T18:35:20.873Z,7.53
2022-10-30T18:37:47.525Z,7.10
2022-10-30T18:40:14.489Z,7.53
2022-10-30T18:42:42.303Z,7.15
2022-10-30T18:45:20.002Z,7.13
2022-10-30T18:47:47.407Z,7.57
2022-10-30T18:50:14.718Z,7.55
2022-10-30T18:52:42.680Z,7.15
2022-10-30T18:55:17.925Z,7.93
2022-10-30T18:57:45.214Z,7.60
2022-10-30T19:00:13.127Z,7.93
2022-10-30T19:02:42.193Z,7.78
2022-10-30T19:05:19.848Z,7.80
2022-10-30T19:07:46.795Z,7.97
2022-10-30T19:10:13.537Z,7.22
2022-10-30T19:12:51.522Z,8.25
2022-10-30T19:15:30.740Z,7.60
2022-10-30T19:17:59.369Z,7.55
2022-10-30T19:20:50.522Z,8.13
2022-10-30T19:23:16.692Z,8.10
2022-10-30T19:25:44.463Z,8.98
2022-10-30T19:28:11.508Z,8.30
2022-10-30T19:30:39.596Z,8.07
2022-10-30T19:33:09.305Z,8.38
2022-10-30T19:35:36.414Z,8.57
2022-10-30T19:38:08.023Z,8.10
2022-10-30T19:40:37.616Z,8.00
2022-10-30T19:43:05.106Z,7.45
2022-10-30T19:45:34.067Z,8.02
2022-10-30T19:48:02.268Z,7.28
2022-10-30T19:50:33.370Z,7.00
2022-10-30T19:53:01.937Z,7.38
2022-10-30T19:55:30.740Z,7.70
2022-10-30T19:57:59.176Z,7.88
2022-10-30T20:02:55.568Z,6.95
2022-10-30T20:05:25.149Z,7.28
2022-10-30T20:08:04.662Z,7.80
2022-10-30T20:10:36.475Z,7.28
2022-10-30T20:13:04.200Z,7.80
2022-10-30T20:15:31.442Z,7.93
2022-10-30T20:17:59.348Z,7.43
2022-10-30T20:20:28.347Z,7.68
2022-10-30T20:22:55.779Z,7.75
2022-10-30T20:25:25.045Z,8.35
2022-10-30T20:28:02.272Z,8.20
2022-10-30T20:30:32.622Z,7.65
2022-10-30T20:33:01.732Z,8.43
2022-10-30T20:35:28.990Z,7.78
2022-10-30T20:37:58.485Z,7.93
2022-10-30T20:40:27.229Z,8.35
2022-10-30T20:45:30.065Z,7.07
2022-10-30T20:47:57.155Z,6.85
2022-10-30T20:50:24.223Z,7.72
2022-10-30T20:52:51.720Z,7.78
2022-10-30T20:55:20.114Z,7.53
2022-10-30T20:57:48.319Z,7.03
2022-10-30T21:00:15.765Z,7.95
2022-10-30T21:02:42.887Z,7.15
2022-10-30T21:05:38.178Z,8.02
2022-10-30T21:07:59.025Z,6.78
2022-10-30T21:10:30.355Z,7.40
2022-10-30T21:13:02.178Z,7.45
2022-10-30T21:15:32.479Z,7.55
2022-10-30T21:17:59.536Z,7.00
2022-10-30T21:20:26.789Z,6.75
2022-10-30T21:22:53.580Z,6.93
2022-10-30T21:25:20.484Z,6.57
2022-10-30T21:27:47.149Z,6.97
2022-10-30T21:30:15.545Z,7.38
2022-10-30T21:32:42.283Z,7.25
2022-10-30T21:35:09.643Z,6.63
2022-10-30T21:37:36.756Z,8.57
2022-10-30T21:40:05.058Z,9.00
2022-10-30T21:42:31.884Z,8.77
2022-10-30T21:44:58.704Z,8.32
2022-10-30T21:47:26.973Z,8.98
2022-10-30T21:49:55.061Z,8.27
2022-10-30T21:52:22.708Z,8.18
2022-10-30T21:54:49.424Z,8.80
2022-10-30T21:57:16.103Z,8.85
2022-10-30T21:59:42.982Z,9.90
2022-10-30T22:02:13.046Z,11.07
2022-10-30T22:04:41.316Z,9.90
2022-10-30T22:07:08.366Z,10.60
2022-10-30T22:09:35.206Z,9.30
2022-10-30T22:12:02.227Z,9.15
2022-10-30T22:14:29.599Z,9.57
2022-10-30T22:16:56.297Z,9.25
2022-10-30T22:19:23.151Z,8.48
2022-10-30T22:21:51.226Z,8.45
2022-10-30T22:24:19.413Z,8.20
2022-10-30T22:26:46.443Z,8.48
2022-10-30T22:29:13.187Z,8.30
2022-10-30T22:31:40.134Z,8.00
2022-10-30T22:34:06.768Z,8.85
2022-10-30T22:36:33.979Z,9.18
2022-10-30T22:39:05.848Z,8.48
2022-10-30T22:41:36.475Z,8.25
2022-10-30T22:44:07.873Z,7.70
2022-10-30T22:46:35.916Z,8.35
2022-10-30T22:49:03.150Z,8.57
2022-10-30T22:51:32.885Z,8.32
2022-10-30T22:54:02.781Z,7.78
2022-10-30T22:56:32.267Z,8.23
2022-10-30T22:59:01.039Z,8.38
2022-10-30T23:03:57.971Z,7.47
2022-10-30T23:06:25.226Z,7.88
2022-10-30T23:08:52.706Z,7.45
2022-10-30T23:11:20.788Z,8.40
2022-10-30T23:13:47.976Z,8.43
2022-10-30T23:16:16.828Z,8.25
2022-10-30T23:18:44.494Z,8.15
2022-10-30T23:21:13.348Z,8.88
2022-10-30T23:23:40.983Z,8.15
2022-10-30T23:26:10.744Z,8.70
2022-10-30T23:28:38.827Z,8.15
2022-10-30T23:31:06.762Z,9.27
2022-10-30T23:33:33.743Z,8.23
2022-10-30T23:36:01.326Z,8.23
2022-10-30T23:38:28.666Z,8.20
2022-10-30T23:40:55.478Z,8.43
2022-10-30T23:43:22.256Z,9.27
2022-10-30T23:45:50.195Z,8.82
2022-10-30T23:48:16.870Z,9.10
2022-10-30T23:50:43.511Z,8.55
2022-10-30T23:53:10.459Z,8.82
2022-10-30T23:55:37.137Z,8.88
2022-10-30T23:58:04.172Z,8.65
